sensor_id;sensor_type;location;lat;lon;timestamp;P1;durP1;ratioP1;P2;durP2;ratioP2
12363;SDS011;6246;50.826;4.712;2023-03-23T00:01:13;9.97;;;6.87;;
12363;SDS011;6246;50.826;4.712;2023-03-23T00:03:40;9.27;;;6.37;;
12363;SDS011;6246;50.826;4.712;2023-03-23T00:06:07;9.93;;;7.27;;
12363;SDS011;6246;50.826;4.712;2023-03-23T00:08:34;9.27;;;7.63;;
12363;SDS011;6246;50.826;4.712;2023-03-23T00:11:09;8.90;;;7.00;;
12363;SDS011;6246;50.826;4.712;2023-03-23T00:13:35;8.80;;;6.60;;
12363;SDS011;6246;50.826;4.712;2023-03-23T00:16:02;8.47;;;6.73;;
12363;SDS011;6246;50.826;4.712;2023-03-23T00:18:28;9.20;;;6.70;;
12363;SDS011;6246;50.826;4.712;2023-03-23T00:20:55;8.83;;;6.80;;
12363;SDS011;6246;50.826;4.712;2023-03-23T00:23:22;13.53;;;6.80;;
12363;SDS011;6246;50.826;4.712;2023-03-23T00:25:50;11.23;;;7.13;;
12363;SDS011;6246;50.826;4.712;2023-03-23T00:28:18;10.47;;;7.10;;
12363;SDS011;6246;50.826;4.712;2023-03-23T00:30:53;8.23;;;6.20;;
12363;SDS011;6246;50.826;4.712;2023-03-23T00:33:21;12.40;;;7.30;;
12363;SDS011;6246;50.826;4.712;2023-03-23T00:35:48;7.90;;;6.13;;
12363;SDS011;6246;50.826;4.712;2023-03-23T00:38:17;8.10;;;6.47;;
12363;SDS011;6246;50.826;4.712;2023-03-23T00:40:43;10.27;;;6.93;;
12363;SDS011;6246;50.826;4.712;2023-03-23T00:43:09;8.97;;;6.20;;
12363;SDS011;6246;50.826;4.712;2023-03-23T00:45:38;8.50;;;6.40;;
12363;SDS011;6246;50.826;4.712;2023-03-23T00:48:04;9.30;;;6.87;;
12363;SDS011;6246;50.826;4.712;2023-03-23T00:50:31;10.30;;;7.40;;
12363;SDS011;6246;50.826;4.712;2023-03-23T00:52:57;9.23;;;6.67;;
12363;SDS011;6246;50.826;4.712;2023-03-23T00:55:24;8.33;;;6.20;;
12363;SDS011;6246;50.826;4.712;2023-03-23T00:57:50;7.93;;;6.03;;
12363;SDS011;6246;50.826;4.712;2023-03-23T01:00:17;10.23;;;6.37;;
12363;SDS011;6246;50.826;4.712;2023-03-23T01:02:44;8.00;;;5.77;;
12363;SDS011;6246;50.826;4.712;2023-03-23T01:05:10;11.80;;;5.97;;
12363;SDS011;6246;50.826;4.712;2023-03-23T01:07:37;8.73;;;5.87;;
12363;SDS011;6246;50.826;4.712;2023-03-23T01:10:03;7.40;;;5.77;;
12363;SDS011;6246;50.826;4.712;2023-03-23T01:12:29;9.00;;;6.07;;
12363;SDS011;6246;50.826;4.712;2023-03-23T01:14:55;10.60;;;6.20;;
12363;SDS011;6246;50.826;4.712;2023-03-23T01:17:22;5.87;;;4.93;;
12363;SDS011;6246;50.826;4.712;2023-03-23T01:19:48;8.60;;;6.03;;
12363;SDS011;6246;50.826;4.712;2023-03-23T01:22:14;6.90;;;5.40;;
12363;SDS011;6246;50.826;4.712;2023-03-23T01:24:40;7.10;;;5.40;;
12363;SDS011;6246;50.826;4.712;2023-03-23T01:27:06;6.60;;;5.43;;
12363;SDS011;6246;50.826;4.712;2023-03-23T01:29:33;9.73;;;5.53;;
12363;SDS011;6246;50.826;4.712;2023-03-23T01:31:59;5.87;;;5.20;;
12363;SDS011;6246;50.826;4.712;2023-03-23T01:34:26;7.03;;;4.77;;
12363;SDS011;6246;50.826;4.712;2023-03-23T01:36:52;6.10;;;5.13;;
12363;SDS011;6246;50.826;4.712;2023-03-23T01:39:18;7.47;;;5.60;;
12363;SDS011;6246;50.826;4.712;2023-03-23T01:41:44;8.87;;;5.63;;
12363;SDS011;6246;50.826;4.712;2023-03-23T01:46:43;6.57;;;5.03;;
12363;SDS011;6246;50.826;4.712;2023-03-23T01:49:17;5.23;;;4.63;;
12363;SDS011;6246;50.826;4.712;2023-03-23T01:51:48;5.93;;;4.97;;
12363;SDS011;6246;50.826;4.712;2023-03-23T01:54:15;5.50;;;5.00;;
12363;SDS011;6246;50.826;4.712;2023-03-23T01:56:46;5.60;;;4.77;;
12363;SDS011;6246;50.826;4.712;2023-03-23T01:59:13;5.80;;;4.80;;
12363;SDS011;6246;50.826;4.712;2023-03-23T02:01:40;5.20;;;4.70;;
12363;SDS011;6246;50.826;4.712;2023-03-23T02:04:10;5.73;;;4.67;;
12363;SDS011;6246;50.826;4.712;2023-03-23T02:06:37;5.73;;;4.40;;
12363;SDS011;6246;50.826;4.712;2023-03-23T02:09:03;6.67;;;4.47;;
12363;SDS011;6246;50.826;4.712;2023-03-23T02:11:31;6.63;;;4.57;;
12363;SDS011;6246;50.826;4.712;2023-03-23T02:13:57;7.57;;;5.17;;
12363;SDS011;6246;50.826;4.712;2023-03-23T02:21:39;7.77;;;4.77;;
12363;SDS011;6246;50.826;4.712;2023-03-23T02:34:10;6.60;;;4.17;;
12363;SDS011;6246;50.826;4.712;2023-03-23T02:41:56;4.40;;;4.00;;
12363;SDS011;6246;50.826;4.712;2023-03-23T02:44:23;5.83;;;3.97;;
12363;SDS011;6246;50.826;4.712;2023-03-23T02:46:50;7.03;;;4.30;;
12363;SDS011;6246;50.826;4.712;2023-03-23T02:49:18;5.53;;;3.57;;
12363;SDS011;6246;50.826;4.712;2023-03-23T02:51:45;6.30;;;4.10;;
12363;SDS011;6246;50.826;4.712;2023-03-23T02:54:12;5.23;;;4.03;;
12363;SDS011;6246;50.826;4.712;2023-03-23T02:56:39;6.20;;;3.73;;
12363;SDS011;6246;50.826;4.712;2023-03-23T02:59:06;4.30;;;3.90;;
12363;SDS011;6246;50.826;4.712;2023-03-23T03:03:59;3.80;;;3.50;;
12363;SDS011;6246;50.826;4.712;2023-03-23T03:06:32;3.50;;;3.20;;
12363;SDS011;6246;50.826;4.712;2023-03-23T03:09:04;3.80;;;3.50;;
12363;SDS011;6246;50.826;4.712;2023-03-23T03:11:33;3.30;;;3.00;;
12363;SDS011;6246;50.826;4.712;2023-03-23T03:14:02;5.33;;;3.43;;
12363;SDS011;6246;50.826;4.712;2023-03-23T03:16:31;3.77;;;3.47;;
12363;SDS011;6246;50.826;4.712;2023-03-23T03:21:25;4.07;;;3.13;;
12363;SDS011;6246;50.826;4.712;2023-03-23T03:23:54;7.23;;;3.90;;
12363;SDS011;6246;50.826;4.712;2023-03-23T03:26:24;4.00;;;3.27;;
12363;SDS011;6246;50.826;4.712;2023-03-23T03:28:52;4.57;;;3.10;;
12363;SDS011;6246;50.826;4.712;2023-03-23T03:31:19;3.60;;;3.30;;
12363;SDS011;6246;50.826;4.712;2023-03-23T03:33:46;3.90;;;3.50;;
12363;SDS011;6246;50.826;4.712;2023-03-23T03:36:16;4.43;;;3.13;;
12363;SDS011;6246;50.826;4.712;2023-03-23T03:38:47;3.30;;;2.77;;
12363;SDS011;6246;50.826;4.712;2023-03-23T03:41:13;3.83;;;3.30;;
12363;SDS011;6246;50.826;4.712;2023-03-23T03:43:40;3.83;;;3.13;;
12363;SDS011;6246;50.826;4.712;2023-03-23T03:46:06;3.40;;;3.10;;
12363;SDS011;6246;50.826;4.712;2023-03-23T03:48:32;4.83;;;3.00;;
12363;SDS011;6246;50.826;4.712;2023-03-23T03:50:58;3.50;;;3.13;;
12363;SDS011;6246;50.826;4.712;2023-03-23T03:53:25;3.20;;;3.00;;
12363;SDS011;6246;50.826;4.712;2023-03-23T03:55:51;2.77;;;2.57;;
12363;SDS011;6246;50.826;4.712;2023-03-23T03:58:20;3.00;;;2.80;;
12363;SDS011;6246;50.826;4.712;2023-03-23T04:00:47;3.23;;;2.60;;
12363;SDS011;6246;50.826;4.712;2023-03-23T04:03:14;3.13;;;2.73;;
12363;SDS011;6246;50.826;4.712;2023-03-23T04:05:40;2.87;;;2.67;;
12363;SDS011;6246;50.826;4.712;2023-03-23T04:08:07;3.23;;;2.93;;
12363;SDS011;6246;50.826;4.712;2023-03-23T04:10:33;3.10;;;2.80;;
12363;SDS011;6246;50.826;4.712;2023-03-23T04:12:59;2.90;;;2.70;;
12363;SDS011;6246;50.826;4.712;2023-03-23T04:15:25;2.70;;;2.50;;
12363;SDS011;6246;50.826;4.712;2023-03-23T04:17:51;2.83;;;2.53;;
12363;SDS011;6246;50.826;4.712;2023-03-23T04:20:17;3.63;;;3.00;;
12363;SDS011;6246;50.826;4.712;2023-03-23T04:22:44;2.87;;;2.67;;
12363;SDS011;6246;50.826;4.712;2023-03-23T04:25:14;3.60;;;3.07;;
12363;SDS011;6246;50.826;4.712;2023-03-23T04:27:40;2.87;;;2.50;;
12363;SDS011;6246;50.826;4.712;2023-03-23T04:30:11;3.13;;;2.70;;
12363;SDS011;6246;50.826;4.712;2023-03-23T04:32:38;2.80;;;2.53;;
12363;SDS011;6246;50.826;4.712;2023-03-23T04:35:07;2.40;;;2.23;;
12363;SDS011;6246;50.826;4.712;2023-03-23T04:37:33;2.80;;;2.53;;
12363;SDS011;6246;50.826;4.712;2023-03-23T04:40:00;3.97;;;2.40;;
12363;SDS011;6246;50.826;4.712;2023-03-23T04:42:30;3.50;;;2.27;;
12363;SDS011;6246;50.826;4.712;2023-03-23T04:44:57;7.20;;;3.17;;
12363;SDS011;6246;50.826;4.712;2023-03-23T04:47:24;3.60;;;2.73;;
12363;SDS011;6246;50.826;4.712;2023-03-23T04:49:54;2.57;;;2.37;;
12363;SDS011;6246;50.826;4.712;2023-03-23T04:52:21;4.23;;;2.27;;
12363;SDS011;6246;50.826;4.712;2023-03-23T04:54:50;2.40;;;2.20;;
12363;SDS011;6246;50.826;4.712;2023-03-23T04:57:16;3.00;;;2.30;;
12363;SDS011;6246;50.826;4.712;2023-03-23T04:59:42;2.13;;;1.93;;
12363;SDS011;6246;50.826;4.712;2023-03-23T05:02:09;2.47;;;2.27;;
12363;SDS011;6246;50.826;4.712;2023-03-23T05:04:35;2.93;;;2.00;;
12363;SDS011;6246;50.826;4.712;2023-03-23T05:07:02;2.73;;;2.23;;
12363;SDS011;6246;50.826;4.712;2023-03-23T05:09:28;4.43;;;2.40;;
12363;SDS011;6246;50.826;4.712;2023-03-23T05:11:54;3.03;;;2.10;;
12363;SDS011;6246;50.826;4.712;2023-03-23T05:14:20;2.67;;;1.90;;
12363;SDS011;6246;50.826;4.712;2023-03-23T05:16:46;3.07;;;2.40;;
12363;SDS011;6246;50.826;4.712;2023-03-23T05:19:14;2.00;;;1.83;;
12363;SDS011;6246;50.826;4.712;2023-03-23T05:21:40;2.07;;;1.93;;
12363;SDS011;6246;50.826;4.712;2023-03-23T05:24:06;2.43;;;2.07;;
12363;SDS011;6246;50.826;4.712;2023-03-23T05:26:32;3.33;;;1.83;;
12363;SDS011;6246;50.826;4.712;2023-03-23T05:28:58;2.57;;;1.83;;
12363;SDS011;6246;50.826;4.712;2023-03-23T05:31:25;2.10;;;1.73;;
12363;SDS011;6246;50.826;4.712;2023-03-23T05:33:51;2.33;;;2.13;;
12363;SDS011;6246;50.826;4.712;2023-03-23T05:36:17;2.07;;;1.67;;
12363;SDS011;6246;50.826;4.712;2023-03-23T05:38:43;2.30;;;2.00;;
12363;SDS011;6246;50.826;4.712;2023-03-23T05:41:13;2.33;;;1.80;;
12363;SDS011;6246;50.826;4.712;2023-03-23T05:43:39;2.30;;;1.87;;
12363;SDS011;6246;50.826;4.712;2023-03-23T05:46:05;3.93;;;2.10;;
12363;SDS011;6246;50.826;4.712;2023-03-23T05:48:32;2.50;;;1.80;;
12363;SDS011;6246;50.826;4.712;2023-03-23T05:50:58;2.17;;;1.97;;
12363;SDS011;6246;50.826;4.712;2023-03-23T05:53:25;2.67;;;1.80;;
12363;SDS011;6246;50.826;4.712;2023-03-23T05:55:51;2.63;;;1.97;;
12363;SDS011;6246;50.826;4.712;2023-03-23T05:58:18;2.40;;;1.67;;
12363;SDS011;6246;50.826;4.712;2023-03-23T06:00:44;4.53;;;1.67;;
12363;SDS011;6246;50.826;4.712;2023-03-23T06:03:11;2.67;;;2.30;;
12363;SDS011;6246;50.826;4.712;2023-03-23T06:05:44;2.00;;;1.80;;
12363;SDS011;6246;50.826;4.712;2023-03-23T06:08:10;3.77;;;2.03;;
12363;SDS011;6246;50.826;4.712;2023-03-23T06:10:37;3.30;;;1.80;;
12363;SDS011;6246;50.826;4.712;2023-03-23T06:13:03;2.17;;;1.60;;
12363;SDS011;6246;50.826;4.712;2023-03-23T06:15:30;1.70;;;1.40;;
12363;SDS011;6246;50.826;4.712;2023-03-23T06:18:00;1.70;;;1.50;;
12363;SDS011;6246;50.826;4.712;2023-03-23T06:20:27;3.17;;;1.77;;
12363;SDS011;6246;50.826;4.712;2023-03-23T06:22:54;2.73;;;1.63;;
12363;SDS011;6246;50.826;4.712;2023-03-23T06:25:21;1.40;;;1.30;;
12363;SDS011;6246;50.826;4.712;2023-03-23T06:27:47;1.43;;;1.33;;
12363;SDS011;6246;50.826;4.712;2023-03-23T06:30:14;3.57;;;1.80;;
12363;SDS011;6246;50.826;4.712;2023-03-23T06:32:40;2.30;;;1.60;;
12363;SDS011;6246;50.826;4.712;2023-03-23T06:35:07;2.20;;;1.60;;
12363;SDS011;6246;50.826;4.712;2023-03-23T06:37:34;2.30;;;1.70;;
12363;SDS011;6246;50.826;4.712;2023-03-23T06:40:01;1.73;;;1.50;;
12363;SDS011;6246;50.826;4.712;2023-03-23T06:42:29;1.50;;;1.40;;
12363;SDS011;6246;50.826;4.712;2023-03-23T06:44:55;3.73;;;2.00;;
12363;SDS011;6246;50.826;4.712;2023-03-23T06:47:22;1.60;;;1.50;;
12363;SDS011;6246;50.826;4.712;2023-03-23T06:49:49;1.87;;;1.40;;
12363;SDS011;6246;50.826;4.712;2023-03-23T06:52:15;2.03;;;1.83;;
12363;SDS011;6246;50.826;4.712;2023-03-23T06:54:41;2.00;;;1.57;;
12363;SDS011;6246;50.826;4.712;2023-03-23T06:57:07;2.27;;;1.50;;
12363;SDS011;6246;50.826;4.712;2023-03-23T06:59:33;2.53;;;1.93;;
12363;SDS011;6246;50.826;4.712;2023-03-23T07:01:59;2.03;;;1.33;;
12363;SDS011;6246;50.826;4.712;2023-03-23T07:04:25;3.23;;;1.80;;
12363;SDS011;6246;50.826;4.712;2023-03-23T07:06:51;3.73;;;1.50;;
12363;SDS011;6246;50.826;4.712;2023-03-23T07:09:17;1.67;;;1.43;;
12363;SDS011;6246;50.826;4.712;2023-03-23T07:11:43;3.13;;;1.70;;
12363;SDS011;6246;50.826;4.712;2023-03-23T07:14:12;2.00;;;1.43;;
12363;SDS011;6246;50.826;4.712;2023-03-23T07:16:38;1.50;;;1.10;;
12363;SDS011;6246;50.826;4.712;2023-03-23T07:19:04;2.13;;;1.63;;
12363;SDS011;6246;50.826;4.712;2023-03-23T07:21:31;2.93;;;1.87;;
12363;SDS011;6246;50.826;4.712;2023-03-23T07:23:57;2.53;;;1.63;;
12363;SDS011;6246;50.826;4.712;2023-03-23T07:26:23;1.77;;;1.30;;
12363;SDS011;6246;50.826;4.712;2023-03-23T07:28:49;2.57;;;1.47;;
12363;SDS011;6246;50.826;4.712;2023-03-23T07:31:15;2.23;;;1.57;;
12363;SDS011;6246;50.826;4.712;2023-03-23T07:33:41;2.90;;;1.60;;
12363;SDS011;6246;50.826;4.712;2023-03-23T07:36:08;1.43;;;1.33;;
12363;SDS011;6246;50.826;4.712;2023-03-23T07:38:34;3.37;;;1.43;;
12363;SDS011;6246;50.826;4.712;2023-03-23T07:41:02;2.93;;;1.60;;
12363;SDS011;6246;50.826;4.712;2023-03-23T07:43:28;2.23;;;1.30;;
12363;SDS011;6246;50.826;4.712;2023-03-23T07:45:54;2.43;;;1.30;;
12363;SDS011;6246;50.826;4.712;2023-03-23T07:48:21;4.93;;;1.80;;
12363;SDS011;6246;50.826;4.712;2023-03-23T07:50:47;3.93;;;1.53;;
12363;SDS011;6246;50.826;4.712;2023-03-23T07:53:13;1.57;;;1.20;;
12363;SDS011;6246;50.826;4.712;2023-03-23T07:55:39;2.10;;;1.30;;
12363;SDS011;6246;50.826;4.712;2023-03-23T07:58:05;1.57;;;1.20;;
12363;SDS011;6246;50.826;4.712;2023-03-23T08:00:32;1.40;;;1.30;;
12363;SDS011;6246;50.826;4.712;2023-03-23T08:02:58;2.67;;;1.57;;
12363;SDS011;6246;50.826;4.712;2023-03-23T08:05:25;2.77;;;1.57;;
12363;SDS011;6246;50.826;4.712;2023-03-23T08:07:52;2.07;;;1.40;;
12363;SDS011;6246;50.826;4.712;2023-03-23T08:10:19;1.47;;;1.20;;
12363;SDS011;6246;50.826;4.712;2023-03-23T08:12:49;2.73;;;1.50;;
12363;SDS011;6246;50.826;4.712;2023-03-23T08:15:16;3.03;;;1.80;;
12363;SDS011;6246;50.826;4.712;2023-03-23T08:17:42;1.73;;;1.23;;
12363;SDS011;6246;50.826;4.712;2023-03-23T08:20:09;4.73;;;1.50;;
12363;SDS011;6246;50.826;4.712;2023-03-23T08:22:38;4.87;;;1.70;;
12363;SDS011;6246;50.826;4.712;2023-03-23T08:25:05;4.23;;;2.23;;
12363;SDS011;6246;50.826;4.712;2023-03-23T08:27:31;4.37;;;3.20;;
12363;SDS011;6246;50.826;4.712;2023-03-23T08:29:58;5.73;;;3.17;;
12363;SDS011;6246;50.826;4.712;2023-03-23T08:32:24;5.03;;;3.50;;
12363;SDS011;6246;50.826;4.712;2023-03-23T08:34:51;5.50;;;3.10;;
12363;SDS011;6246;50.826;4.712;2023-03-23T08:37:17;4.97;;;3.17;;
12363;SDS011;6246;50.826;4.712;2023-03-23T08:39:43;4.43;;;3.93;;
12363;SDS011;6246;50.826;4.712;2023-03-23T08:42:09;6.53;;;4.77;;
12363;SDS011;6246;50.826;4.712;2023-03-23T08:44:36;8.67;;;4.70;;
12363;SDS011;6246;50.826;4.712;2023-03-23T08:47:02;5.53;;;4.73;;
12363;SDS011;6246;50.826;4.712;2023-03-23T08:49:30;6.03;;;4.63;;
12363;SDS011;6246;50.826;4.712;2023-03-23T08:51:57;7.13;;;5.10;;
12363;SDS011;6246;50.826;4.712;2023-03-23T08:54:23;7.37;;;5.57;;
12363;SDS011;6246;50.826;4.712;2023-03-23T08:56:50;7.87;;;5.73;;
12363;SDS011;6246;50.826;4.712;2023-03-23T08:59:16;8.90;;;6.27;;
12363;SDS011;6246;50.826;4.712;2023-03-23T09:01:42;7.17;;;5.80;;
12363;SDS011;6246;50.826;4.712;2023-03-23T09:04:08;10.60;;;7.07;;
12363;SDS011;6246;50.826;4.712;2023-03-23T09:06:35;9.20;;;5.90;;
12363;SDS011;6246;50.826;4.712;2023-03-23T09:09:02;6.83;;;5.83;;
12363;SDS011;6246;50.826;4.712;2023-03-23T09:11:32;8.93;;;6.43;;
12363;SDS011;6246;50.826;4.712;2023-03-23T09:13:58;9.30;;;7.00;;
12363;SDS011;6246;50.826;4.712;2023-03-23T09:16:24;7.63;;;6.23;;
12363;SDS011;6246;50.826;4.712;2023-03-23T09:18:51;9.03;;;6.60;;
12363;SDS011;6246;50.826;4.712;2023-03-23T09:21:17;7.77;;;6.50;;
12363;SDS011;6246;50.826;4.712;2023-03-23T09:23:43;9.67;;;6.43;;
12363;SDS011;6246;50.826;4.712;2023-03-23T09:26:10;9.63;;;7.20;;
12363;SDS011;6246;50.826;4.712;2023-03-23T09:28:36;8.57;;;6.90;;
12363;SDS011;6246;50.826;4.712;2023-03-23T09:31:02;8.10;;;6.50;;
12363;SDS011;6246;50.826;4.712;2023-03-23T09:33:29;9.87;;;6.53;;
12363;SDS011;6246;50.826;4.712;2023-03-23T09:35:58;10.53;;;6.87;;
12363;SDS011;6246;50.826;4.712;2023-03-23T09:38:24;8.70;;;6.60;;
12363;SDS011;6246;50.826;4.712;2023-03-23T09:51:12;9.50;;;7.40;;
12363;SDS011;6246;50.826;4.712;2023-03-23T09:53:41;9.60;;;6.80;;
12363;SDS011;6246;50.826;4.712;2023-03-23T09:56:10;10.10;;;7.00;;
12363;SDS011;6246;50.826;4.712;2023-03-23T09:58:41;9.53;;;6.93;;
12363;SDS011;6246;50.826;4.712;2023-03-23T10:03:41;8.83;;;7.07;;
12363;SDS011;6246;50.826;4.712;2023-03-23T10:06:13;9.83;;;7.07;;
12363;SDS011;6246;50.826;4.712;2023-03-23T10:08:44;8.90;;;7.23;;
12363;SDS011;6246;50.826;4.712;2023-03-23T10:11:22;10.67;;;6.70;;
12363;SDS011;6246;50.826;4.712;2023-03-23T10:13:59;8.70;;;6.97;;
12363;SDS011;6246;50.826;4.712;2023-03-23T10:16:31;10.20;;;6.63;;
12363;SDS011;6246;50.826;4.712;2023-03-23T10:19:01;8.43;;;6.67;;
12363;SDS011;6246;50.826;4.712;2023-03-23T10:21:29;8.57;;;6.43;;
12363;SDS011;6246;50.826;4.712;2023-03-23T10:31:43;10.67;;;6.60;;
12363;SDS011;6246;50.826;4.712;2023-03-23T10:34:17;7.43;;;6.37;;
12363;SDS011;6246;50.826;4.712;2023-03-23T10:39:21;7.67;;;6.20;;
12363;SDS011;6246;50.826;4.712;2023-03-23T10:41:48;12.73;;;6.50;;
12363;SDS011;6246;50.826;4.712;2023-03-23T10:49:12;6.80;;;5.80;;
12363;SDS011;6246;50.826;4.712;2023-03-23T10:51:42;12.93;;;6.43;;
12363;SDS011;6246;50.826;4.712;2023-03-23T10:54:09;13.00;;;6.73;;
12363;SDS011;6246;50.826;4.712;2023-03-23T10:56:36;8.33;;;6.10;;
12363;SDS011;6246;50.826;4.712;2023-03-23T10:59:18;7.13;;;5.70;;
12363;SDS011;6246;50.826;4.712;2023-03-23T11:01:52;7.70;;;6.10;;
12363;SDS011;6246;50.826;4.712;2023-03-23T11:04:18;8.77;;;6.37;;
12363;SDS011;6246;50.826;4.712;2023-03-23T11:06:46;7.97;;;6.00;;
12363;SDS011;6246;50.826;4.712;2023-03-23T11:09:17;9.33;;;6.00;;
12363;SDS011;6246;50.826;4.712;2023-03-23T11:11:48;7.23;;;5.73;;
12363;SDS011;6246;50.826;4.712;2023-03-23T11:16:45;8.83;;;6.00;;
12363;SDS011;6246;50.826;4.712;2023-03-23T11:19:15;7.67;;;5.77;;
12363;SDS011;6246;50.826;4.712;2023-03-23T11:21:45;7.30;;;6.30;;
12363;SDS011;6246;50.826;4.712;2023-03-23T11:24:13;7.03;;;5.80;;
12363;SDS011;6246;50.826;4.712;2023-03-23T11:26:39;6.70;;;5.33;;
12363;SDS011;6246;50.826;4.712;2023-03-23T11:29:12;9.33;;;5.73;;
12363;SDS011;6246;50.826;4.712;2023-03-23T11:31:43;9.70;;;5.50;;
12363;SDS011;6246;50.826;4.712;2023-03-23T11:34:14;9.63;;;5.67;;
12363;SDS011;6246;50.826;4.712;2023-03-23T11:36:42;7.27;;;5.40;;
12363;SDS011;6246;50.826;4.712;2023-03-23T11:39:19;6.90;;;5.37;;
12363;SDS011;6246;50.826;4.712;2023-03-23T11:41:46;6.90;;;5.60;;
12363;SDS011;6246;50.826;4.712;2023-03-23T11:44:13;6.37;;;5.53;;
12363;SDS011;6246;50.826;4.712;2023-03-23T11:49:24;6.53;;;5.27;;
12363;SDS011;6246;50.826;4.712;2023-03-23T11:51:54;6.57;;;5.20;;
12363;SDS011;6246;50.826;4.712;2023-03-23T11:54:28;6.97;;;5.27;;
12363;SDS011;6246;50.826;4.712;2023-03-23T11:56:55;5.77;;;5.23;;
12363;SDS011;6246;50.826;4.712;2023-03-23T12:09:48;5.00;;;4.53;;
12363;SDS011;6246;50.826;4.712;2023-03-23T12:12:18;5.43;;;4.70;;
12363;SDS011;6246;50.826;4.712;2023-03-23T12:17:31;5.60;;;4.97;;
12363;SDS011;6246;50.826;4.712;2023-03-23T12:23:03;5.77;;;4.70;;
12363;SDS011;6246;50.826;4.712;2023-03-23T12:25:43;7.10;;;4.97;;
12363;SDS011;6246;50.826;4.712;2023-03-23T12:28:16;5.20;;;4.70;;
12363;SDS011;6246;50.826;4.712;2023-03-23T12:41:29;4.63;;;4.13;;
12363;SDS011;6246;50.826;4.712;2023-03-23T12:44:02;4.70;;;4.20;;
12363;SDS011;6246;50.826;4.712;2023-03-23T12:49:01;4.43;;;4.03;;
12363;SDS011;6246;50.826;4.712;2023-03-23T12:51:31;5.80;;;4.30;;
12363;SDS011;6246;50.826;4.712;2023-03-23T12:54:14;6.47;;;4.47;;
12363;SDS011;6246;50.826;4.712;2023-03-23T12:56:52;4.43;;;4.03;;
12363;SDS011;6246;50.826;4.712;2023-03-23T12:59:30;6.73;;;4.20;;
12363;SDS011;6246;50.826;4.712;2023-03-23T13:02:16;5.00;;;4.50;;
12363;SDS011;6246;50.826;4.712;2023-03-23T13:04:46;6.27;;;4.10;;
12363;SDS011;6246;50.826;4.712;2023-03-23T13:07:15;4.27;;;3.87;;
12363;SDS011;6246;50.826;4.712;2023-03-23T13:12:31;5.53;;;3.87;;
12363;SDS011;6246;50.826;4.712;2023-03-23T13:15:15;6.37;;;4.40;;
12363;SDS011;6246;50.826;4.712;2023-03-23T13:18:04;6.60;;;4.03;;
12363;SDS011;6246;50.826;4.712;2023-03-23T13:23:23;7.33;;;4.10;;
12363;SDS011;6246;50.826;4.712;2023-03-23T13:28:17;4.47;;;3.30;;
12363;SDS011;6246;50.826;4.712;2023-03-23T13:33:20;5.37;;;3.70;;
12363;SDS011;6246;50.826;4.712;2023-03-23T13:35:46;5.40;;;3.60;;
12363;SDS011;6246;50.826;4.712;2023-03-23T13:38:21;5.30;;;3.67;;
12363;SDS011;6246;50.826;4.712;2023-03-23T13:40:48;5.30;;;3.53;;
12363;SDS011;6246;50.826;4.712;2023-03-23T13:43:24;4.10;;;3.70;;
12363;SDS011;6246;50.826;4.712;2023-03-23T13:45:51;4.87;;;3.60;;
12363;SDS011;6246;50.826;4.712;2023-03-23T13:48:20;3.63;;;3.33;;
12363;SDS011;6246;50.826;4.712;2023-03-23T13:50:57;5.13;;;3.37;;
12363;SDS011;6246;50.826;4.712;2023-03-23T13:53:25;7.40;;;3.63;;
12363;SDS011;6246;50.826;4.712;2023-03-23T13:56:07;6.07;;;3.43;;
12363;SDS011;6246;50.826;4.712;2023-03-23T13:58:43;3.93;;;3.37;;
12363;SDS011;6246;50.826;4.712;2023-03-23T14:01:11;6.50;;;3.93;;
12363;SDS011;6246;50.826;4.712;2023-03-23T14:03:41;4.13;;;3.57;;
12363;SDS011;6246;50.826;4.712;2023-03-23T14:06:14;3.20;;;2.90;;
12363;SDS011;6246;50.826;4.712;2023-03-23T14:08:42;4.73;;;3.40;;
12363;SDS011;6246;50.826;4.712;2023-03-23T14:21:21;5.40;;;3.40;;
12363;SDS011;6246;50.826;4.712;2023-03-23T14:23:47;3.30;;;3.00;;
12363;SDS011;6246;50.826;4.712;2023-03-23T14:26:17;4.13;;;3.23;;
12363;SDS011;6246;50.826;4.712;2023-03-23T14:28:45;3.50;;;3.07;;
12363;SDS011;6246;50.826;4.712;2023-03-23T14:31:18;6.37;;;3.13;;
12363;SDS011;6246;50.826;4.712;2023-03-23T14:33:44;4.63;;;3.27;;
12363;SDS011;6246;50.826;4.712;2023-03-23T14:36:13;6.47;;;3.50;;
12363;SDS011;6246;50.826;4.712;2023-03-23T14:38:39;4.20;;;3.47;;
12363;SDS011;6246;50.826;4.712;2023-03-23T14:41:05;6.95;;;4.20;;
12363;SDS011;6246;50.826;4.712;2023-03-23T14:43:32;6.93;;;4.07;;
12363;SDS011;6246;50.826;4.712;2023-03-23T14:45:59;5.43;;;4.33;;
12363;SDS011;6246;50.826;4.712;2023-03-23T14:48:26;7.73;;;4.50;;
12363;SDS011;6246;50.826;4.712;2023-03-23T14:50:56;5.93;;;4.47;;
12363;SDS011;6246;50.826;4.712;2023-03-23T14:53:31;7.47;;;4.80;;
12363;SDS011;6246;50.826;4.712;2023-03-23T14:55:59;7.87;;;4.97;;
12363;SDS011;6246;50.826;4.712;2023-03-23T14:58:27;8.30;;;5.30;;
12363;SDS011;6246;50.826;4.712;2023-03-23T15:03:20;8.57;;;5.73;;
12363;SDS011;6246;50.826;4.712;2023-03-23T15:05:48;6.47;;;5.33;;
12363;SDS011;6246;50.826;4.712;2023-03-23T15:08:20;8.00;;;5.63;;
12363;SDS011;6246;50.826;4.712;2023-03-23T15:10:54;8.80;;;5.63;;
12363;SDS011;6246;50.826;4.712;2023-03-23T15:13:20;6.50;;;4.90;;
12363;SDS011;6246;50.826;4.712;2023-03-23T15:15:47;7.13;;;5.10;;
12363;SDS011;6246;50.826;4.712;2023-03-23T15:18:27;8.20;;;5.10;;
12363;SDS011;6246;50.826;4.712;2023-03-23T15:20:54;8.23;;;5.07;;
12363;SDS011;6246;50.826;4.712;2023-03-23T15:23:28;7.53;;;5.40;;
12363;SDS011;6246;50.826;4.712;2023-03-23T15:25:55;8.33;;;5.10;;
12363;SDS011;6246;50.826;4.712;2023-03-23T15:28:27;7.17;;;4.93;;
12363;SDS011;6246;50.826;4.712;2023-03-23T15:30:54;7.93;;;5.13;;
12363;SDS011;6246;50.826;4.712;2023-03-23T15:33:23;8.17;;;5.20;;
12363;SDS011;6246;50.826;4.712;2023-03-23T15:35:53;7.80;;;4.70;;
12363;SDS011;6246;50.826;4.712;2023-03-23T15:40:48;9.77;;;5.63;;
12363;SDS011;6246;50.826;4.712;2023-03-23T15:43:16;6.43;;;5.10;;
12363;SDS011;6246;50.826;4.712;2023-03-23T15:45:59;8.80;;;5.40;;
12363;SDS011;6246;50.826;4.712;2023-03-23T15:48:28;7.57;;;5.47;;
12363;SDS011;6246;50.826;4.712;2023-03-23T15:50:55;8.10;;;5.40;;
12363;SDS011;6246;50.826;4.712;2023-03-23T15:53:28;7.40;;;5.50;;
12363;SDS011;6246;50.826;4.712;2023-03-23T15:55:54;9.20;;;5.53;;
12363;SDS011;6246;50.826;4.712;2023-03-23T15:58:20;8.73;;;5.53;;
12363;SDS011;6246;50.826;4.712;2023-03-23T16:00:46;6.73;;;5.30;;
12363;SDS011;6246;50.826;4.712;2023-03-23T16:03:18;6.63;;;5.23;;
12363;SDS011;6246;50.826;4.712;2023-03-23T16:05:45;7.60;;;5.60;;
12363;SDS011;6246;50.826;4.712;2023-03-23T16:08:11;7.17;;;5.00;;
12363;SDS011;6246;50.826;4.712;2023-03-23T16:10:38;7.07;;;5.33;;
12363;SDS011;6246;50.826;4.712;2023-03-23T16:13:05;7.67;;;5.47;;
12363;SDS011;6246;50.826;4.712;2023-03-23T16:15:31;7.70;;;5.33;;
12363;SDS011;6246;50.826;4.712;2023-03-23T16:17:57;5.93;;;5.10;;
12363;SDS011;6246;50.826;4.712;2023-03-23T16:20:23;7.13;;;5.43;;
12363;SDS011;6246;50.826;4.712;2023-03-23T16:22:49;6.43;;;4.93;;
12363;SDS011;6246;50.826;4.712;2023-03-23T16:25:16;5.90;;;4.83;;
12363;SDS011;6246;50.826;4.712;2023-03-23T16:27:43;8.30;;;5.20;;
12363;SDS011;6246;50.826;4.712;2023-03-23T16:32:40;6.00;;;4.97;;
12363;SDS011;6246;50.826;4.712;2023-03-23T16:35:06;7.20;;;4.93;;
12363;SDS011;6246;50.826;4.712;2023-03-23T16:37:32;8.50;;;5.30;;
12363;SDS011;6246;50.826;4.712;2023-03-23T16:39:58;7.63;;;5.43;;
12363;SDS011;6246;50.826;4.712;2023-03-23T16:42:24;6.23;;;4.70;;
12363;SDS011;6246;50.826;4.712;2023-03-23T16:44:50;6.50;;;4.60;;
12363;SDS011;6246;50.826;4.712;2023-03-23T16:47:18;6.27;;;4.77;;
12363;SDS011;6246;50.826;4.712;2023-03-23T16:49:49;6.73;;;4.57;;
12363;SDS011;6246;50.826;4.712;2023-03-23T16:52:15;5.47;;;4.57;;
12363;SDS011;6246;50.826;4.712;2023-03-23T16:54:41;8.93;;;4.80;;
12363;SDS011;6246;50.826;4.712;2023-03-23T16:57:07;8.03;;;5.50;;
12363;SDS011;6246;50.826;4.712;2023-03-23T16:59:33;10.60;;;6.03;;
12363;SDS011;6246;50.826;4.712;2023-03-23T17:02:00;17.63;;;5.93;;
12363;SDS011;6246;50.826;4.712;2023-03-23T17:04:31;11.50;;;5.80;;